sensor_id;sensor_type;location;lat;lon;timestamp;P1;durP1;ratioP1;P2;durP2;ratioP2
40623;SDS011;26325;48.594;11.650;2024-01-10T00:00:19;19.27;;;14.02;;
40623;SDS011;26325;48.594;11.650;2024-01-10T00:02:45;19.77;;;14.80;;
40623;SDS011;26325;48.594;11.650;2024-01-10T00:05:10;19.95;;;14.77;;
40623;SDS011;26325;48.594;11.650;2024-01-10T00:07:36;22.13;;;14.95;;
40623;SDS011;26325;48.594;11.650;2024-01-10T00:10:04;22.13;;;15.75;;
40623;SDS011;26325;48.594;11.650;2024-01-10T00:12:30;20.13;;;14.27;;
40623;SDS011;26325;48.594;11.650;2024-01-10T00:15:00;21.10;;;15.00;;
40623;SDS011;26325;48.594;11.650;2024-01-10T00:17:26;20.73;;;14.57;;
40623;SDS011;26325;48.594;11.650;2024-01-10T00:19:54;20.63;;;14.75;;
40623;SDS011;26325;48.594;11.650;2024-01-10T00:22:23;19.88;;;14.27;;
40623;SDS011;26325;48.594;11.650;2024-01-10T00:24:48;23.27;;;16.08;;
40623;SDS011;26325;48.594;11.650;2024-01-10T00:27:14;21.85;;;15.18;;
40623;SDS011;26325;48.594;11.650;2024-01-10T00:29:40;19.20;;;14.32;;
40623;SDS011;26325;48.594;11.650;2024-01-10T00:32:06;20.27;;;14.80;;
40623;SDS011;26325;48.594;11.650;2024-01-10T00:34:34;19.75;;;14.68;;
40623;SDS011;26325;48.594;11.650;2024-01-10T00:37:00;23.13;;;16.25;;
40623;SDS011;26325;48.594;11.650;2024-01-10T00:39:25;20.55;;;15.27;;
40623;SDS011;26325;48.594;11.650;2024-01-10T00:41:51;21.55;;;15.75;;
40623;SDS011;26325;48.594;11.650;2024-01-10T00:44:16;22.08;;;15.73;;
40623;SDS011;26325;48.594;11.650;2024-01-10T00:46:42;21.60;;;15.80;;
40623;SDS011;26325;48.594;11.650;2024-01-10T00:49:07;24.40;;;16.60;;
40623;SDS011;26325;48.594;11.650;2024-01-10T00:51:33;22.63;;;16.50;;
40623;SDS011;26325;48.594;11.650;2024-01-10T00:53:58;23.52;;;15.93;;
40623;SDS011;26325;48.594;11.650;2024-01-10T00:56:24;24.85;;;17.30;;
40623;SDS011;26325;48.594;11.650;2024-01-10T00:58:52;25.52;;;17.70;;
40623;SDS011;26325;48.594;11.650;2024-01-10T01:01:23;25.65;;;18.27;;
40623;SDS011;26325;48.594;11.650;2024-01-10T01:03:50;23.30;;;17.42;;
40623;SDS011;26325;48.594;11.650;2024-01-10T01:06:15;24.92;;;18.35;;
40623;SDS011;26325;48.594;11.650;2024-01-10T01:08:41;27.60;;;19.05;;
40623;SDS011;26325;48.594;11.650;2024-01-10T01:11:06;24.80;;;18.13;;
40623;SDS011;26325;48.594;11.650;2024-01-10T01:13:32;26.13;;;18.35;;
40623;SDS011;26325;48.594;11.650;2024-01-10T01:15:58;24.52;;;18.17;;
40623;SDS011;26325;48.594;11.650;2024-01-10T01:18:23;24.00;;;17.92;;
40623;SDS011;26325;48.594;11.650;2024-01-10T01:20:50;23.00;;;16.23;;
40623;SDS011;26325;48.594;11.650;2024-01-10T01:23:18;25.45;;;16.85;;
40623;SDS011;26325;48.594;11.650;2024-01-10T01:25:44;23.27;;;17.00;;
40623;SDS011;26325;48.594;11.650;2024-01-10T01:28:09;24.65;;;17.35;;
40623;SDS011;26325;48.594;11.650;2024-01-10T01:30:35;21.45;;;15.63;;
40623;SDS011;26325;48.594;11.650;2024-01-10T01:33:00;22.60;;;15.90;;
40623;SDS011;26325;48.594;11.650;2024-01-10T01:35:27;22.42;;;16.80;;
40623;SDS011;26325;48.594;11.650;2024-01-10T01:37:53;22.33;;;16.65;;
40623;SDS011;26325;48.594;11.650;2024-01-10T01:40:18;22.67;;;16.02;;
40623;SDS011;26325;48.594;11.650;2024-01-10T01:42:47;19.48;;;15.32;;
40623;SDS011;26325;48.594;11.650;2024-01-10T01:45:13;20.25;;;15.20;;
40623;SDS011;26325;48.594;11.650;2024-01-10T01:47:40;24.27;;;16.55;;
40623;SDS011;26325;48.594;11.650;2024-01-10T01:50:06;20.48;;;14.85;;
40623;SDS011;26325;48.594;11.650;2024-01-10T01:52:32;23.95;;;16.15;;
40623;SDS011;26325;48.594;11.650;2024-01-10T01:55:00;22.48;;;15.38;;
40623;SDS011;26325;48.594;11.650;2024-01-10T01:57:26;22.05;;;15.43;;
40623;SDS011;26325;48.594;11.650;2024-01-10T01:59:52;21.80;;;15.80;;
40623;SDS011;26325;48.594;11.650;2024-01-10T02:02:23;19.50;;;14.73;;
40623;SDS011;26325;48.594;11.650;2024-01-10T02:04:49;20.92;;;15.75;;
40623;SDS011;26325;48.594;11.650;2024-01-10T02:07:15;23.23;;;15.20;;
40623;SDS011;26325;48.594;11.650;2024-01-10T02:09:41;20.63;;;15.00;;
40623;SDS011;26325;48.594;11.650;2024-01-10T02:12:07;23.02;;;15.65;;
40623;SDS011;26325;48.594;11.650;2024-01-10T02:14:32;18.55;;;14.60;;
40623;SDS011;26325;48.594;11.650;2024-01-10T02:16:58;23.17;;;15.20;;
40623;SDS011;26325;48.594;11.650;2024-01-10T02:19:26;17.92;;;13.73;;
40623;SDS011;26325;48.594;11.650;2024-01-10T02:21:54;21.05;;;15.38;;
40623;SDS011;26325;48.594;11.650;2024-01-10T02:24:21;20.10;;;14.80;;
40623;SDS011;26325;48.594;11.650;2024-01-10T02:26:48;21.27;;;15.25;;
40623;SDS011;26325;48.594;11.650;2024-01-10T02:29:15;20.27;;;14.57;;
40623;SDS011;26325;48.594;11.650;2024-01-10T02:31:40;20.85;;;14.95;;
40623;SDS011;26325;48.594;11.650;2024-01-10T02:34:06;21.05;;;14.82;;
40623;SDS011;26325;48.594;11.650;2024-01-10T02:36:31;21.58;;;14.88;;
40623;SDS011;26325;48.594;11.650;2024-01-10T02:38:57;20.38;;;14.07;;
40623;SDS011;26325;48.594;11.650;2024-01-10T02:41:23;19.00;;;13.82;;
40623;SDS011;26325;48.594;11.650;2024-01-10T02:43:48;19.90;;;14.57;;
40623;SDS011;26325;48.594;11.650;2024-01-10T02:46:14;20.20;;;14.27;;
40623;SDS011;26325;48.594;11.650;2024-01-10T02:48:43;21.85;;;15.30;;
40623;SDS011;26325;48.594;11.650;2024-01-10T02:51:09;21.02;;;14.20;;
40623;SDS011;26325;48.594;11.650;2024-01-10T02:53:35;20.05;;;14.80;;
40623;SDS011;26325;48.594;11.650;2024-01-10T02:56:02;18.23;;;14.20;;
40623;SDS011;26325;48.594;11.650;2024-01-10T02:58:28;20.73;;;13.90;;
40623;SDS011;26325;48.594;11.650;2024-01-10T03:00:55;20.85;;;15.13;;
40623;SDS011;26325;48.594;11.650;2024-01-10T03:03:22;19.95;;;13.82;;
40623;SDS011;26325;48.594;11.650;2024-01-10T03:05:48;20.70;;;15.40;;
40623;SDS011;26325;48.594;11.650;2024-01-10T03:08:13;19.30;;;14.63;;
40623;SDS011;26325;48.594;11.650;2024-01-10T03:10:39;18.88;;;13.48;;
40623;SDS011;26325;48.594;11.650;2024-01-10T03:13:04;20.55;;;14.38;;
40623;SDS011;26325;48.594;11.650;2024-01-10T03:15:30;19.23;;;14.30;;
40623;SDS011;26325;48.594;11.650;2024-01-10T03:17:56;20.50;;;14.38;;
40623;SDS011;26325;48.594;11.650;2024-01-10T03:20:21;22.00;;;14.95;;
40623;SDS011;26325;48.594;11.650;2024-01-10T03:22:47;21.70;;;15.18;;
40623;SDS011;26325;48.594;11.650;2024-01-10T03:25:12;19.77;;;13.75;;
40623;SDS011;26325;48.594;11.650;2024-01-10T03:27:38;19.98;;;14.00;;
40623;SDS011;26325;48.594;11.650;2024-01-10T03:30:04;20.83;;;14.88;;
40623;SDS011;26325;48.594;11.650;2024-01-10T03:32:31;20.45;;;14.07;;
40623;SDS011;26325;48.594;11.650;2024-01-10T03:34:58;20.20;;;13.85;;
40623;SDS011;26325;48.594;11.650;2024-01-10T03:37:26;19.60;;;14.02;;
40623;SDS011;26325;48.594;11.650;2024-01-10T03:39:52;19.13;;;14.48;;
40623;SDS011;26325;48.594;11.650;2024-01-10T03:42:17;19.42;;;13.88;;
40623;SDS011;26325;48.594;11.650;2024-01-10T03:44:45;18.13;;;13.60;;
40623;SDS011;26325;48.594;11.650;2024-01-10T03:47:13;17.52;;;13.65;;
40623;SDS011;26325;48.594;11.650;2024-01-10T03:49:38;18.17;;;13.48;;
40623;SDS011;26325;48.594;11.650;2024-01-10T03:52:05;21.30;;;14.68;;
40623;SDS011;26325;48.594;11.650;2024-01-10T03:54:31;20.08;;;14.48;;
40623;SDS011;26325;48.594;11.650;2024-01-10T03:56:56;20.67;;;14.23;;
40623;SDS011;26325;48.594;11.650;2024-01-10T03:59:22;19.45;;;14.20;;
40623;SDS011;26325;48.594;11.650;2024-01-10T04:01:48;19.70;;;14.43;;
40623;SDS011;26325;48.594;11.650;2024-01-10T04:04:14;21.98;;;15.30;;
40623;SDS011;26325;48.594;11.650;2024-01-10T04:06:39;22.15;;;15.00;;
40623;SDS011;26325;48.594;11.650;2024-01-10T04:09:05;19.98;;;14.77;;
40623;SDS011;26325;48.594;11.650;2024-01-10T04:11:33;22.42;;;15.70;;
40623;SDS011;26325;48.594;11.650;2024-01-10T04:13:59;20.50;;;14.60;;
40623;SDS011;26325;48.594;11.650;2024-01-10T04:16:25;19.85;;;14.52;;
40623;SDS011;26325;48.594;11.650;2024-01-10T04:18:52;23.25;;;14.93;;
40623;SDS011;26325;48.594;11.650;2024-01-10T04:21:18;19.63;;;14.93;;
40623;SDS011;26325;48.594;11.650;2024-01-10T04:23:43;20.17;;;15.38;;
40623;SDS011;26325;48.594;11.650;2024-01-10T04:26:09;22.95;;;16.08;;
40623;SDS011;26325;48.594;11.650;2024-01-10T04:28:35;19.88;;;15.02;;
40623;SDS011;26325;48.594;11.650;2024-01-10T04:31:00;20.30;;;14.93;;
40623;SDS011;26325;48.594;11.650;2024-01-10T04:33:28;21.70;;;16.25;;
40623;SDS011;26325;48.594;11.650;2024-01-10T04:35:53;20.70;;;15.23;;
40623;SDS011;26325;48.594;11.650;2024-01-10T04:38:22;20.27;;;15.68;;
40623;SDS011;26325;48.594;11.650;2024-01-10T04:40:51;22.50;;;16.02;;
40623;SDS011;26325;48.594;11.650;2024-01-10T04:43:21;21.67;;;15.20;;
40623;SDS011;26325;48.594;11.650;2024-01-10T04:45:46;20.67;;;15.18;;
40623;SDS011;26325;48.594;11.650;2024-01-10T04:48:15;21.35;;;15.85;;
40623;SDS011;26325;48.594;11.650;2024-01-10T04:50:42;22.38;;;16.17;;
40623;SDS011;26325;48.594;11.650;2024-01-10T04:53:09;20.38;;;15.05;;
40623;SDS011;26325;48.594;11.650;2024-01-10T04:55:35;21.80;;;15.77;;
40623;SDS011;26325;48.594;11.650;2024-01-10T04:58:00;21.20;;;15.77;;
40623;SDS011;26325;48.594;11.650;2024-01-10T05:00:28;20.25;;;14.93;;
40623;SDS011;26325;48.594;11.650;2024-01-10T05:02:57;21.10;;;14.95;;
40623;SDS011;26325;48.594;11.650;2024-01-10T05:05:23;19.52;;;15.10;;
40623;SDS011;26325;48.594;11.650;2024-01-10T05:07:50;21.88;;;15.80;;
40623;SDS011;26325;48.594;11.650;2024-01-10T05:10:22;21.15;;;15.77;;
40623;SDS011;26325;48.594;11.650;2024-01-10T05:12:50;22.35;;;16.45;;
40623;SDS011;26325;48.594;11.650;2024-01-10T05:15:15;21.75;;;15.48;;
40623;SDS011;26325;48.594;11.650;2024-01-10T05:17:41;22.63;;;15.77;;
40623;SDS011;26325;48.594;11.650;2024-01-10T05:20:08;20.30;;;15.55;;
40623;SDS011;26325;48.594;11.650;2024-01-10T05:22:34;22.58;;;16.15;;
40623;SDS011;26325;48.594;11.650;2024-01-10T05:25:00;22.10;;;16.40;;
40623;SDS011;26325;48.594;11.650;2024-01-10T05:27:26;23.55;;;17.65;;
40623;SDS011;26325;48.594;11.650;2024-01-10T05:29:52;23.52;;;16.35;;
40623;SDS011;26325;48.594;11.650;2024-01-10T05:32:22;22.92;;;17.38;;
40623;SDS011;26325;48.594;11.650;2024-01-10T05:34:48;23.75;;;16.67;;
40623;SDS011;26325;48.594;11.650;2024-01-10T05:37:15;23.65;;;16.98;;
40623;SDS011;26325;48.594;11.650;2024-01-10T05:39:41;22.95;;;16.83;;
40623;SDS011;26325;48.594;11.650;2024-01-10T05:42:06;22.70;;;16.80;;
40623;SDS011;26325;48.594;11.650;2024-01-10T05:44:32;24.02;;;17.13;;
40623;SDS011;26325;48.594;11.650;2024-01-10T05:46:58;21.75;;;16.45;;
40623;SDS011;26325;48.594;11.650;2024-01-10T05:49:25;25.20;;;18.85;;
40623;SDS011;26325;48.594;11.650;2024-01-10T05:51:51;24.00;;;17.05;;
40623;SDS011;26325;48.594;11.650;2024-01-10T05:54:19;25.55;;;17.83;;
40623;SDS011;26325;48.594;11.650;2024-01-10T05:56:45;26.17;;;17.75;;
40623;SDS011;26325;48.594;11.650;2024-01-10T05:59:13;26.65;;;18.05;;
40623;SDS011;26325;48.594;11.650;2024-01-10T06:01:41;25.30;;;17.92;;
40623;SDS011;26325;48.594;11.650;2024-01-10T06:04:06;24.65;;;18.08;;
40623;SDS011;26325;48.594;11.650;2024-01-10T06:06:32;24.15;;;17.63;;
40623;SDS011;26325;48.594;11.650;2024-01-10T06:08:58;28.55;;;19.02;;
40623;SDS011;26325;48.594;11.650;2024-01-10T06:11:23;28.77;;;19.40;;
40623;SDS011;26325;48.594;11.650;2024-01-10T06:13:49;26.88;;;19.33;;
40623;SDS011;26325;48.594;11.650;2024-01-10T06:16:15;31.02;;;21.20;;
40623;SDS011;26325;48.594;11.650;2024-01-10T06:18:40;29.42;;;20.48;;
40623;SDS011;26325;48.594;11.650;2024-01-10T06:21:11;34.05;;;23.88;;
40623;SDS011;26325;48.594;11.650;2024-01-10T06:23:39;31.98;;;21.70;;
40623;SDS011;26325;48.594;11.650;2024-01-10T06:26:05;29.92;;;21.63;;
40623;SDS011;26325;48.594;11.650;2024-01-10T06:28:34;28.08;;;20.55;;
40623;SDS011;26325;48.594;11.650;2024-01-10T06:31:02;28.20;;;20.15;;
40623;SDS011;26325;48.594;11.650;2024-01-10T06:33:27;29.08;;;21.17;;
40623;SDS011;26325;48.594;11.650;2024-01-10T06:35:53;30.90;;;21.77;;
40623;SDS011;26325;48.594;11.650;2024-01-10T06:38:19;26.45;;;19.85;;
40623;SDS011;26325;48.594;11.650;2024-01-10T06:40:48;29.75;;;20.83;;
40623;SDS011;26325;48.594;11.650;2024-01-10T06:43:19;26.80;;;18.80;;
40623;SDS011;26325;48.594;11.650;2024-01-10T06:45:45;29.05;;;20.35;;
40623;SDS011;26325;48.594;11.650;2024-01-10T06:48:18;26.23;;;19.60;;
40623;SDS011;26325;48.594;11.650;2024-01-10T06:50:48;27.52;;;20.08;;
40623;SDS011;26325;48.594;11.650;2024-01-10T06:53:15;28.08;;;20.63;;
40623;SDS011;26325;48.594;11.650;2024-01-10T06:55:41;30.85;;;21.10;;
40623;SDS011;26325;48.594;11.650;2024-01-10T06:58:06;32.10;;;22.95;;
40623;SDS011;26325;48.594;11.650;2024-01-10T07:00:33;32.80;;;23.40;;
40623;SDS011;26325;48.594;11.650;2024-01-10T07:03:01;32.90;;;22.17;;
40623;SDS011;26325;48.594;11.650;2024-01-10T07:05:27;33.30;;;23.20;;
40623;SDS011;26325;48.594;11.650;2024-01-10T07:07:54;31.83;;;21.58;;
40623;SDS011;26325;48.594;11.650;2024-01-10T07:10:22;32.42;;;22.15;;
40623;SDS011;26325;48.594;11.650;2024-01-10T07:12:51;33.33;;;22.08;;
40623;SDS011;26325;48.594;11.650;2024-01-10T07:15:17;35.05;;;22.90;;
40623;SDS011;26325;48.594;11.650;2024-01-10T07:17:43;32.03;;;21.85;;
40623;SDS011;26325;48.594;11.650;2024-01-10T07:20:09;32.60;;;22.55;;
40623;SDS011;26325;48.594;11.650;2024-01-10T07:22:39;31.60;;;21.33;;
40623;SDS011;26325;48.594;11.650;2024-01-10T07:25:12;34.40;;;23.08;;
40623;SDS011;26325;48.594;11.650;2024-01-10T07:27:40;34.08;;;21.83;;
40623;SDS011;26325;48.594;11.650;2024-01-10T07:30:09;32.58;;;21.75;;
40623;SDS011;26325;48.594;11.650;2024-01-10T07:32:43;35.72;;;22.90;;
40623;SDS011;26325;48.594;11.650;2024-01-10T07:35:12;30.75;;;21.63;;
40623;SDS011;26325;48.594;11.650;2024-01-10T07:37:41;32.38;;;22.08;;
40623;SDS011;26325;48.594;11.650;2024-01-10T07:40:08;30.25;;;21.45;;
40623;SDS011;26325;48.594;11.650;2024-01-10T07:42:36;30.85;;;21.40;;
40623;SDS011;26325;48.594;11.650;2024-01-10T07:45:03;34.33;;;21.85;;
40623;SDS011;26325;48.594;11.650;2024-01-10T07:47:33;33.75;;;21.98;;
40623;SDS011;26325;48.594;11.650;2024-01-10T07:50:04;31.23;;;21.45;;
40623;SDS011;26325;48.594;11.650;2024-01-10T07:52:33;31.58;;;21.40;;
40623;SDS011;26325;48.594;11.650;2024-01-10T07:55:00;30.42;;;21.15;;
40623;SDS011;26325;48.594;11.650;2024-01-10T07:57:29;31.63;;;21.33;;
40623;SDS011;26325;48.594;11.650;2024-01-10T07:59:56;33.80;;;21.95;;
40623;SDS011;26325;48.594;11.650;2024-01-10T08:02:23;34.15;;;22.17;;
40623;SDS011;26325;48.594;11.650;2024-01-10T08:04:49;33.67;;;22.48;;
40623;SDS011;26325;48.594;11.650;2024-01-10T08:07:16;34.67;;;22.88;;
40623;SDS011;26325;48.594;11.650;2024-01-10T08:09:42;32.30;;;22.20;;
40623;SDS011;26325;48.594;11.650;2024-01-10T08:12:07;31.55;;;21.90;;
40623;SDS011;26325;48.594;11.650;2024-01-10T08:14:33;33.30;;;23.10;;
40623;SDS011;26325;48.594;11.650;2024-01-10T08:16:59;32.53;;;22.80;;
40623;SDS011;26325;48.594;11.650;2024-01-10T08:19:26;33.03;;;23.17;;
40623;SDS011;26325;48.594;11.650;2024-01-10T08:21:53;31.83;;;22.13;;
40623;SDS011;26325;48.594;11.650;2024-01-10T08:24:20;31.65;;;21.27;;
40623;SDS011;26325;48.594;11.650;2024-01-10T08:26:47;33.60;;;21.55;;
40623;SDS011;26325;48.594;11.650;2024-01-10T08:29:22;32.30;;;21.08;;
40623;SDS011;26325;48.594;11.650;2024-01-10T08:31:48;33.17;;;21.55;;
40623;SDS011;26325;48.594;11.650;2024-01-10T08:34:14;34.15;;;22.42;;
40623;SDS011;26325;48.594;11.650;2024-01-10T08:36:39;32.03;;;21.98;;
40623;SDS011;26325;48.594;11.650;2024-01-10T08:39:05;32.80;;;21.65;;
40623;SDS011;26325;48.594;11.650;2024-01-10T08:41:32;30.33;;;21.60;;
40623;SDS011;26325;48.594;11.650;2024-01-10T08:43:58;30.65;;;20.25;;
40623;SDS011;26325;48.594;11.650;2024-01-10T08:46:25;28.20;;;19.95;;
40623;SDS011;26325;48.594;11.650;2024-01-10T08:48:51;29.60;;;20.05;;
40623;SDS011;26325;48.594;11.650;2024-01-10T08:51:17;28.15;;;20.08;;
40623;SDS011;26325;48.594;11.650;2024-01-10T08:53:44;27.52;;;19.27;;
40623;SDS011;26325;48.594;11.650;2024-01-10T08:56:10;29.60;;;20.05;;
40623;SDS011;26325;48.594;11.650;2024-01-10T08:58:36;30.13;;;20.35;;
40623;SDS011;26325;48.594;11.650;2024-01-10T09:01:03;26.63;;;18.95;;
40623;SDS011;26325;48.594;11.650;2024-01-10T09:03:29;27.95;;;20.50;;
40623;SDS011;26325;48.594;11.650;2024-01-10T09:05:55;27.92;;;19.60;;
40623;SDS011;26325;48.594;11.650;2024-01-10T09:08:21;29.92;;;20.42;;
40623;SDS011;26325;48.594;11.650;2024-01-10T09:10:52;29.50;;;20.45;;
40623;SDS011;26325;48.594;11.650;2024-01-10T09:13:18;29.98;;;20.48;;
40623;SDS011;26325;48.594;11.650;2024-01-10T09:15:44;28.15;;;20.40;;
40623;SDS011;26325;48.594;11.650;2024-01-10T09:18:09;28.77;;;20.40;;
40623;SDS011;26325;48.594;11.650;2024-01-10T09:20:37;30.00;;;20.67;;
40623;SDS011;26325;48.594;11.650;2024-01-10T09:23:03;23.20;;;18.65;;
40623;SDS011;26325;48.594;11.650;2024-01-10T09:25:29;27.20;;;20.30;;
40623;SDS011;26325;48.594;11.650;2024-01-10T09:27:57;24.25;;;19.75;;
40623;SDS011;26325;48.594;11.650;2024-01-10T09:30:22;25.95;;;19.30;;
40623;SDS011;26325;48.594;11.650;2024-01-10T09:32:49;24.42;;;20.40;;
40623;SDS011;26325;48.594;11.650;2024-01-10T09:35:17;23.42;;;19.42;;
40623;SDS011;26325;48.594;11.650;2024-01-10T09:37:43;25.33;;;19.83;;
40623;SDS011;26325;48.594;11.650;2024-01-10T09:40:13;23.55;;;19.88;;
40623;SDS011;26325;48.594;11.650;2024-01-10T09:42:43;26.27;;;20.92;;
40623;SDS011;26325;48.594;11.650;2024-01-10T09:45:10;25.77;;;20.45;;
40623;SDS011;26325;48.594;11.650;2024-01-10T09:47:42;22.98;;;19.17;;
40623;SDS011;26325;48.594;11.650;2024-01-10T09:50:11;26.58;;;20.58;;
40623;SDS011;26325;48.594;11.650;2024-01-10T09:53:06;23.27;;;20.17;;
40623;SDS011;26325;48.594;11.650;2024-01-10T09:55:34;24.33;;;20.13;;
40623;SDS011;26325;48.594;11.650;2024-01-10T09:58:08;25.52;;;20.10;;
40623;SDS011;26325;48.594;11.650;2024-01-10T10:00:41;27.67;;;20.98;;
40623;SDS011;26325;48.594;11.650;2024-01-10T10:03:08;26.98;;;20.35;;
40623;SDS011;26325;48.594;11.650;2024-01-10T10:05:44;26.55;;;21.55;;
40623;SDS011;26325;48.594;11.650;2024-01-10T10:08:12;27.90;;;20.75;;
40623;SDS011;26325;48.594;11.650;2024-01-10T10:10:40;24.13;;;19.88;;
40623;SDS011;26325;48.594;11.650;2024-01-10T10:13:10;25.00;;;20.05;;
40623;SDS011;26325;48.594;11.650;2024-01-10T10:16:01;24.38;;;19.80;;
40623;SDS011;26325;48.594;11.650;2024-01-10T10:18:29;26.42;;;19.85;;
40623;SDS011;26325;48.594;11.650;2024-01-10T10:21:12;26.50;;;20.08;;
40623;SDS011;26325;48.594;11.650;2024-01-10T10:23:40;27.02;;;21.40;;
40623;SDS011;26325;48.594;11.650;2024-01-10T10:26:16;25.38;;;20.08;;
40623;SDS011;26325;48.594;11.650;2024-01-10T10:28:49;27.05;;;20.60;;
40623;SDS011;26325;48.594;11.650;2024-01-10T10:31:16;25.45;;;20.67;;
40623;SDS011;26325;48.594;11.650;2024-01-10T10:33:45;26.35;;;20.85;;
40623;SDS011;26325;48.594;11.650;2024-01-10T10:36:13;25.25;;;20.52;;
40623;SDS011;26325;48.594;11.650;2024-01-10T10:38:40;25.60;;;21.05;;
40623;SDS011;26325;48.594;11.650;2024-01-10T10:41:07;23.83;;;20.00;;
40623;SDS011;26325;48.594;11.650;2024-01-10T10:43:37;25.00;;;21.00;;
40623;SDS011;26325;48.594;11.650;2024-01-10T10:46:06;26.60;;;21.10;;
40623;SDS011;26325;48.594;11.650;2024-01-10T10:48:35;25.95;;;22.13;;
40623;SDS011;26325;48.594;11.650;2024-01-10T10:51:32;23.52;;;20.40;;
40623;SDS011;26325;48.594;11.650;2024-01-10T10:53:59;25.58;;;21.10;;
40623;SDS011;26325;48.594;11.650;2024-01-10T10:56:29;26.73;;;22.95;;
40623;SDS011;26325;48.594;11.650;2024-01-10T10:59:00;25.55;;;22.15;;
40623;SDS011;26325;48.594;11.650;2024-01-10T11:01:28;25.35;;;22.23;;
40623;SDS011;26325;48.594;11.650;2024-01-10T11:03:54;28.02;;;22.92;;
40623;SDS011;26325;48.594;11.650;2024-01-10T11:06:20;26.17;;;22.63;;
40623;SDS011;26325;48.594;11.650;2024-01-10T11:08:50;26.33;;;22.45;;
40623;SDS011;26325;48.594;11.650;2024-01-10T11:11:31;28.77;;;23.27;;
40623;SDS011;26325;48.594;11.650;2024-01-10T11:17:26;28.38;;;22.92;;
40623;SDS011;26325;48.594;11.650;2024-01-10T11:23:37;26.98;;;22.58;;
40623;SDS011;26325;48.594;11.650;2024-01-10T11:26:11;28.88;;;23.90;;
40623;SDS011;26325;48.594;11.650;2024-01-10T11:28:40;28.33;;;23.00;;
40623;SDS011;26325;48.594;11.650;2024-01-10T11:31:07;30.63;;;23.23;;
40623;SDS011;26325;48.594;11.650;2024-01-10T11:33:35;28.00;;;22.20;;
40623;SDS011;26325;48.594;11.650;2024-01-10T11:36:13;28.38;;;22.85;;
40623;SDS011;26325;48.594;11.650;2024-01-10T11:38:44;29.13;;;22.83;;
40623;SDS011;26325;48.594;11.650;2024-01-10T11:46:40;26.88;;;22.80;;
40623;SDS011;26325;48.594;11.650;2024-01-10T11:49:10;28.05;;;22.42;;
40623;SDS011;26325;48.594;11.650;2024-01-10T11:51:45;30.33;;;22.85;;
40623;SDS011;26325;48.594;11.650;2024-01-10T11:57:34;28.25;;;23.52;;
40623;SDS011;26325;48.594;11.650;2024-01-10T12:00:00;29.92;;;24.02;;
40623;SDS011;26325;48.594;11.650;2024-01-10T12:02:26;32.70;;;24.42;;
40623;SDS011;26325;48.594;11.650;2024-01-10T12:04:53;32.22;;;24.75;;
40623;SDS011;26325;48.594;11.650;2024-01-10T12:07:20;30.45;;;24.05;;
40623;SDS011;26325;48.594;11.650;2024-01-10T12:09:47;32.90;;;25.77;;
40623;SDS011;26325;48.594;11.650;2024-01-10T12:12:13;30.65;;;23.77;;
40623;SDS011;26325;48.594;11.650;2024-01-10T12:14:40;30.50;;;23.52;;
40623;SDS011;26325;48.594;11.650;2024-01-10T12:17:10;30.75;;;24.27;;
40623;SDS011;26325;48.594;11.650;2024-01-10T12:19:38;32.20;;;25.45;;
40623;SDS011;26325;48.594;11.650;2024-01-10T12:22:04;32.75;;;24.48;;
40623;SDS011;26325;48.594;11.650;2024-01-10T12:24:33;33.50;;;25.13;;
40623;SDS011;26325;48.594;11.650;2024-01-10T12:26:59;31.52;;;24.45;;
40623;SDS011;26325;48.594;11.650;2024-01-10T12:29:27;33.30;;;24.30;;
40623;SDS011;26325;48.594;11.650;2024-01-10T12:31:52;31.30;;;24.15;;
40623;SDS011;26325;48.594;11.650;2024-01-10T12:34:19;32.20;;;25.45;;
40623;SDS011;26325;48.594;11.650;2024-01-10T12:36:46;31.77;;;23.80;;
40623;SDS011;26325;48.594;11.650;2024-01-10T12:39:13;31.65;;;25.25;;
40623;SDS011;26325;48.594;11.650;2024-01-10T12:41:40;32.35;;;25.48;;
40623;SDS011;26325;48.594;11.650;2024-01-10T12:44:06;32.15;;;25.23;;
40623;SDS011;26325;48.594;11.650;2024-01-10T12:46:32;31.75;;;25.85;;
40623;SDS011;26325;48.594;11.650;2024-01-10T12:48:59;31.50;;;24.90;;
40623;SDS011;26325;48.594;11.650;2024-01-10T12:51:29;32.72;;;24.85;;
40623;SDS011;26325;48.594;11.650;2024-01-10T12:53:55;30.33;;;24.52;;
40623;SDS011;26325;48.594;11.650;2024-01-10T12:56:28;31.88;;;24.65;;
40623;SDS011;26325;48.594;11.650;2024-01-10T12:58:54;30.73;;;24.63;;
40623;SDS011;26325;48.594;11.650;2024-01-10T13:01:22;29.50;;;24.95;;
40623;SDS011;26325;48.594;11.650;2024-01-10T13:03:52;34.92;;;26.15;;
40623;SDS011;26325;48.594;11.650;2024-01-10T13:06:18;32.20;;;26.52;;
40623;SDS011;26325;48.594;11.650;2024-01-10T13:08:48;34.63;;;25.65;;
40623;SDS011;26325;48.594;11.650;2024-01-10T13:11:14;32.30;;;24.77;;
40623;SDS011;26325;48.594;11.650;2024-01-10T13:13:40;32.85;;;25.50;;
40623;SDS011;26325;48.594;11.650;2024-01-10T13:16:08;32.70;;;25.58;;
40623;SDS011;26325;48.594;11.650;2024-01-10T13:18:37;32.28;;;25.60;;
40623;SDS011;26325;48.594;11.650;2024-01-10T13:21:04;33.15;;;25.63;;
40623;SDS011;26325;48.594;11.650;2024-01-10T13:23:30;33.85;;;25.90;;
40623;SDS011;26325;48.594;11.650;2024-01-10T13:25:58;30.92;;;24.83;;
40623;SDS011;26325;48.594;11.650;2024-01-10T13:28:28;33.58;;;24.90;;
40623;SDS011;26325;48.594;11.650;2024-01-10T13:30:55;32.33;;;25.63;;
40623;SDS011;26325;48.594;11.650;2024-01-10T13:33:28;33.80;;;25.35;;
40623;SDS011;26325;48.594;11.650;2024-01-10T13:35:55;33.65;;;25.45;;
40623;SDS011;26325;48.594;11.650;2024-01-10T13:38:21;33.83;;;26.20;;
40623;SDS011;26325;48.594;11.650;2024-01-10T13:40:53;34.70;;;26.52;;
40623;SDS011;26325;48.594;11.650;2024-01-10T13:43:18;36.20;;;26.17;;
40623;SDS011;26325;48.594;11.650;2024-01-10T13:45:44;36.00;;;25.38;;
40623;SDS011;26325;48.594;11.650;2024-01-10T13:48:10;31.38;;;24.38;;
40623;SDS011;26325;48.594;11.650;2024-01-10T13:50:37;34.67;;;25.88;;
40623;SDS011;26325;48.594;11.650;2024-01-10T13:53:03;35.90;;;27.15;;
40623;SDS011;26325;48.594;11.650;2024-01-10T13:55:30;34.85;;;26.85;;
40623;SDS011;26325;48.594;11.650;2024-01-10T13:57:56;36.63;;;26.85;;
40623;SDS011;26325;48.594;11.650;2024-01-10T14:00:22;33.65;;;26.17;;
40623;SDS011;26325;48.594;11.650;2024-01-10T14:02:48;34.90;;;26.92;;
40623;SDS011;26325;48.594;11.650;2024-01-10T14:05:14;32.50;;;26.17;;
40623;SDS011;26325;48.594;11.650;2024-01-10T14:07:40;33.63;;;26.60;;
40623;SDS011;26325;48.594;11.650;2024-01-10T14:10:12;34.30;;;26.58;;
40623;SDS011;26325;48.594;11.650;2024-01-10T14:12:38;33.95;;;26.38;;
40623;SDS011;26325;48.594;11.650;2024-01-10T14:15:04;34.88;;;27.08;;
40623;SDS011;26325;48.594;11.650;2024-01-10T14:17:30;34.10;;;25.77;;
40623;SDS011;26325;48.594;11.650;2024-01-10T14:20:00;35.95;;;27.02;;
40623;SDS011;26325;48.594;11.650;2024-01-10T14:22:26;32.83;;;25.83;;
40623;SDS011;26325;48.594;11.650;2024-01-10T14:24:51;35.90;;;27.27;;